sensor_id;sensor_type;location;lat;lon;timestamp;temperature;humidity
35700;DHT22;21818;51.078;12.108;2024-03-08T00:00:22;9.10;73.10
35700;DHT22;21818;51.078;12.108;2024-03-08T00:02:48;9.00;73.10
35700;DHT22;21818;51.078;12.108;2024-03-08T00:05:15;9.00;73.10
35700;DHT22;21818;51.078;12.108;2024-03-08T00:07:41;8.90;73.40
35700;DHT22;21818;51.078;12.108;2024-03-08T00:10:08;8.90;73.40
35700;DHT22;21818;51.078;12.108;2024-03-08T00:12:39;8.90;73.40
35700;DHT22;21818;51.078;12.108;2024-03-08T00:15:08;8.90;73.40
35700;DHT22;21818;51.078;12.108;2024-03-08T00:17:33;9.00;73.30
35700;DHT22;21818;51.078;12.108;2024-03-08T00:19:59;9.00;73.20
35700;DHT22;21818;51.078;12.108;2024-03-08T00:22:24;9.00;73.20
35700;DHT22;21818;51.078;12.108;2024-03-08T00:24:49;9.00;73.20
35700;DHT22;21818;51.078;12.108;2024-03-08T00:27:16;9.00;73.20
35700;DHT22;21818;51.078;12.108;2024-03-08T00:29:41;9.00;73.30
35700;DHT22;21818;51.078;12.108;2024-03-08T00:32:07;9.00;73.20
35700;DHT22;21818;51.078;12.108;2024-03-08T00:34:36;9.00;73.20
35700;DHT22;21818;51.078;12.108;2024-03-08T00:37:04;9.00;73.20
35700;DHT22;21818;51.078;12.108;2024-03-08T00:39:30;8.90;73.40
35700;DHT22;21818;51.078;12.108;2024-03-08T00:41:55;9.00;73.80
35700;DHT22;21818;51.078;12.108;2024-03-08T00:44:21;9.00;73.40
35700;DHT22;21818;51.078;12.108;2024-03-08T00:46:46;9.00;73.40
35700;DHT22;21818;51.078;12.108;2024-03-08T00:49:12;9.00;73.20
35700;DHT22;21818;51.078;12.108;2024-03-08T00:51:38;9.00;73.30
35700;DHT22;21818;51.078;12.108;2024-03-08T00:54:03;9.00;73.20
35700;DHT22;21818;51.078;12.108;2024-03-08T00:56:28;9.00;73.20
35700;DHT22;21818;51.078;12.108;2024-03-08T00:58:54;9.00;73.10
35700;DHT22;21818;51.078;12.108;2024-03-08T01:01:19;9.00;73.10
35700;DHT22;21818;51.078;12.108;2024-03-08T01:03:45;9.00;73.20
35700;DHT22;21818;51.078;12.108;2024-03-08T01:06:11;8.90;73.70
35700;DHT22;21818;51.078;12.108;2024-03-08T01:08:37;8.90;73.30
35700;DHT22;21818;51.078;12.108;2024-03-08T01:11:04;8.90;73.30
35700;DHT22;21818;51.078;12.108;2024-03-08T01:13:30;8.90;73.30
35700;DHT22;21818;51.078;12.108;2024-03-08T01:15:55;8.90;73.30
35700;DHT22;21818;51.078;12.108;2024-03-08T01:18:21;8.90;73.20
35700;DHT22;21818;51.078;12.108;2024-03-08T01:20:47;8.90;73.20
35700;DHT22;21818;51.078;12.108;2024-03-08T01:23:12;8.90;73.20
35700;DHT22;21818;51.078;12.108;2024-03-08T01:25:38;8.80;73.20
35700;DHT22;21818;51.078;12.108;2024-03-08T01:28:04;8.70;73.30
35700;DHT22;21818;51.078;12.108;2024-03-08T01:30:29;8.70;73.40
35700;DHT22;21818;51.078;12.108;2024-03-08T01:32:58;8.60;73.50
35700;DHT22;21818;51.078;12.108;2024-03-08T01:35:23;8.70;73.60
35700;DHT22;21818;51.078;12.108;2024-03-08T01:37:49;8.70;73.50
35700;DHT22;21818;51.078;12.108;2024-03-08T01:40:15;8.60;73.50
35700;DHT22;21818;51.078;12.108;2024-03-08T01:42:42;8.70;73.40
35700;DHT22;21818;51.078;12.108;2024-03-08T01:45:07;8.70;73.40
35700;DHT22;21818;51.078;12.108;2024-03-08T01:47:34;8.60;73.40
35700;DHT22;21818;51.078;12.108;2024-03-08T01:49:59;8.60;73.50
35700;DHT22;21818;51.078;12.108;2024-03-08T01:52:32;8.60;73.50
35700;DHT22;21818;51.078;12.108;2024-03-08T01:55:00;8.70;73.90
35700;DHT22;21818;51.078;12.108;2024-03-08T01:57:30;8.60;73.60
35700;DHT22;21818;51.078;12.108;2024-03-08T01:59:56;8.70;73.60
35700;DHT22;21818;51.078;12.108;2024-03-08T02:02:22;8.60;73.60
35700;DHT22;21818;51.078;12.108;2024-03-08T02:04:48;8.60;73.80
35700;DHT22;21818;51.078;12.108;2024-03-08T02:07:14;8.60;73.90
35700;DHT22;21818;51.078;12.108;2024-03-08T02:09:39;8.60;73.80
35700;DHT22;21818;51.078;12.108;2024-03-08T02:12:05;8.60;73.70
35700;DHT22;21818;51.078;12.108;2024-03-08T02:14:31;8.70;74.00
35700;DHT22;21818;51.078;12.108;2024-03-08T02:17:00;8.80;73.90
35700;DHT22;21818;51.078;12.108;2024-03-08T02:19:25;8.80;73.90
35700;DHT22;21818;51.078;12.108;2024-03-08T02:21:50;8.80;73.80
35700;DHT22;21818;51.078;12.108;2024-03-08T02:24:16;8.80;73.70
35700;DHT22;21818;51.078;12.108;2024-03-08T02:26:41;8.80;73.80
35700;DHT22;21818;51.078;12.108;2024-03-08T02:29:08;8.70;73.90
35700;DHT22;21818;51.078;12.108;2024-03-08T02:31:34;8.70;73.90
35700;DHT22;21818;51.078;12.108;2024-03-08T02:33:59;8.60;73.80
35700;DHT22;21818;51.078;12.108;2024-03-08T02:36:25;8.70;73.90
35700;DHT22;21818;51.078;12.108;2024-03-08T02:38:50;8.70;73.80
35700;DHT22;21818;51.078;12.108;2024-03-08T02:41:16;8.70;74.00
35700;DHT22;21818;51.078;12.108;2024-03-08T02:43:41;8.70;73.90
35700;DHT22;21818;51.078;12.108;2024-03-08T02:46:06;8.70;73.90
35700;DHT22;21818;51.078;12.108;2024-03-08T02:48:32;8.70;73.80
35700;DHT22;21818;51.078;12.108;2024-03-08T02:50:57;8.70;73.80
35700;DHT22;21818;51.078;12.108;2024-03-08T02:53:23;8.60;73.70
35700;DHT22;21818;51.078;12.108;2024-03-08T02:55:49;8.60;73.80
35700;DHT22;21818;51.078;12.108;2024-03-08T02:58:15;8.50;73.70
35700;DHT22;21818;51.078;12.108;2024-03-08T03:00:40;8.50;73.90
35700;DHT22;21818;51.078;12.108;2024-03-08T03:03:06;8.40;73.90
35700;DHT22;21818;51.078;12.108;2024-03-08T03:05:32;8.40;74.00
35700;DHT22;21818;51.078;12.108;2024-03-08T03:10:42;8.40;74.00
35700;DHT22;21818;51.078;12.108;2024-03-08T03:13:07;8.40;73.90
35700;DHT22;21818;51.078;12.108;2024-03-08T03:15:33;8.40;74.00
35700;DHT22;21818;51.078;12.108;2024-03-08T03:17:59;8.40;74.00
35700;DHT22;21818;51.078;12.108;2024-03-08T03:20:25;8.40;74.00
35700;DHT22;21818;51.078;12.108;2024-03-08T03:22:53;8.40;74.00
35700;DHT22;21818;51.078;12.108;2024-03-08T03:25:19;8.40;74.10
35700;DHT22;21818;51.078;12.108;2024-03-08T03:27:54;8.40;74.00
35700;DHT22;21818;51.078;12.108;2024-03-08T03:30:22;8.40;73.90
35700;DHT22;21818;51.078;12.108;2024-03-08T03:32:48;8.40;73.90
35700;DHT22;21818;51.078;12.108;2024-03-08T03:35:14;8.40;73.90
35700;DHT22;21818;51.078;12.108;2024-03-08T03:37:40;8.30;73.90
35700;DHT22;21818;51.078;12.108;2024-03-08T03:40:08;8.40;74.00
35700;DHT22;21818;51.078;12.108;2024-03-08T03:42:34;8.40;74.00
35700;DHT22;21818;51.078;12.108;2024-03-08T03:44:59;8.40;74.00
35700;DHT22;21818;51.078;12.108;2024-03-08T03:47:25;8.40;74.00
35700;DHT22;21818;51.078;12.108;2024-03-08T03:49:52;8.40;73.90
35700;DHT22;21818;51.078;12.108;2024-03-08T03:52:18;8.30;73.90
35700;DHT22;21818;51.078;12.108;2024-03-08T03:54:44;8.30;73.90
35700;DHT22;21818;51.078;12.108;2024-03-08T03:57:09;8.30;73.90
35700;DHT22;21818;51.078;12.108;2024-03-08T03:59:35;8.30;73.90
35700;DHT22;21818;51.078;12.108;2024-03-08T04:02:01;8.30;74.00
35700;DHT22;21818;51.078;12.108;2024-03-08T04:04:26;8.30;74.00
35700;DHT22;21818;51.078;12.108;2024-03-08T04:06:52;8.30;74.10
35700;DHT22;21818;51.078;12.108;2024-03-08T04:09:17;8.20;73.90
35700;DHT22;21818;51.078;12.108;2024-03-08T04:11:48;8.20;73.90
35700;DHT22;21818;51.078;12.108;2024-03-08T04:14:13;8.40;74.30
35700;DHT22;21818;51.078;12.108;2024-03-08T04:16:39;8.40;74.20
35700;DHT22;21818;51.078;12.108;2024-03-08T04:19:04;8.40;74.20
35700;DHT22;21818;51.078;12.108;2024-03-08T04:21:30;8.30;74.20
35700;DHT22;21818;51.078;12.108;2024-03-08T04:23:55;8.30;74.40
35700;DHT22;21818;51.078;12.108;2024-03-08T04:26:21;8.20;74.40
35700;DHT22;21818;51.078;12.108;2024-03-08T04:28:47;8.20;74.30
35700;DHT22;21818;51.078;12.108;2024-03-08T04:31:12;8.20;74.40
35700;DHT22;21818;51.078;12.108;2024-03-08T04:33:39;8.20;74.50
35700;DHT22;21818;51.078;12.108;2024-03-08T04:36:04;8.20;74.40
35700;DHT22;21818;51.078;12.108;2024-03-08T04:38:30;8.10;74.40
35700;DHT22;21818;51.078;12.108;2024-03-08T04:40:56;8.10;74.50
35700;DHT22;21818;51.078;12.108;2024-03-08T04:43:22;8.20;74.50
35700;DHT22;21818;51.078;12.108;2024-03-08T04:45:50;8.10;74.40
35700;DHT22;21818;51.078;12.108;2024-03-08T04:48:15;8.00;74.60
35700;DHT22;21818;51.078;12.108;2024-03-08T04:50:41;8.10;74.60
35700;DHT22;21818;51.078;12.108;2024-03-08T04:53:07;8.20;74.40
35700;DHT22;21818;51.078;12.108;2024-03-08T04:55:33;8.20;74.50
35700;DHT22;21818;51.078;12.108;2024-03-08T04:57:59;8.20;74.40
35700;DHT22;21818;51.078;12.108;2024-03-08T05:00:24;8.20;74.30
35700;DHT22;21818;51.078;12.108;2024-03-08T05:02:50;8.20;74.30
35700;DHT22;21818;51.078;12.108;2024-03-08T05:05:18;8.20;74.30
35700;DHT22;21818;51.078;12.108;2024-03-08T05:07:44;8.20;74.30
35700;DHT22;21818;51.078;12.108;2024-03-08T05:10:10;8.30;74.20
35700;DHT22;21818;51.078;12.108;2024-03-08T05:12:36;8.20;74.10
35700;DHT22;21818;51.078;12.108;2024-03-08T05:15:04;8.30;74.30
35700;DHT22;21818;51.078;12.108;2024-03-08T05:17:30;8.20;74.20
35700;DHT22;21818;51.078;12.108;2024-03-08T05:19:55;8.20;74.30
35700;DHT22;21818;51.078;12.108;2024-03-08T05:22:21;8.20;74.40
35700;DHT22;21818;51.078;12.108;2024-03-08T05:24:46;8.10;74.40
35700;DHT22;21818;51.078;12.108;2024-03-08T05:27:12;8.10;74.30
35700;DHT22;21818;51.078;12.108;2024-03-08T05:29:38;8.20;74.40
35700;DHT22;21818;51.078;12.108;2024-03-08T05:32:03;8.10;74.20
35700;DHT22;21818;51.078;12.108;2024-03-08T05:34:29;8.10;74.50
35700;DHT22;21818;51.078;12.108;2024-03-08T05:36:55;8.20;74.30
35700;DHT22;21818;51.078;12.108;2024-03-08T05:39:20;8.20;74.30
35700;DHT22;21818;51.078;12.108;2024-03-08T05:41:46;8.20;74.50
35700;DHT22;21818;51.078;12.108;2024-03-08T05:44:12;8.30;74.50
35700;DHT22;21818;51.078;12.108;2024-03-08T05:46:38;8.30;74.60
35700;DHT22;21818;51.078;12.108;2024-03-08T05:49:04;8.30;74.50
35700;DHT22;21818;51.078;12.108;2024-03-08T05:51:34;8.20;74.80
35700;DHT22;21818;51.078;12.108;2024-03-08T05:54:00;8.30;74.70
35700;DHT22;21818;51.078;12.108;2024-03-08T05:56:28;8.30;74.60
35700;DHT22;21818;51.078;12.108;2024-03-08T05:58:54;8.30;74.40
35700;DHT22;21818;51.078;12.108;2024-03-08T06:01:19;8.30;74.50
35700;DHT22;21818;51.078;12.108;2024-03-08T06:03:45;8.30;74.40
35700;DHT22;21818;51.078;12.108;2024-03-08T06:06:14;8.30;74.20
35700;DHT22;21818;51.078;12.108;2024-03-08T06:08:40;8.40;74.30
35700;DHT22;21818;51.078;12.108;2024-03-08T06:11:05;8.40;74.20
35700;DHT22;21818;51.078;12.108;2024-03-08T06:13:31;8.30;74.10
35700;DHT22;21818;51.078;12.108;2024-03-08T06:15:57;8.20;74.10
35700;DHT22;21818;51.078;12.108;2024-03-08T06:18:22;8.20;74.30
35700;DHT22;21818;51.078;12.108;2024-03-08T06:20:48;8.20;74.40
35700;DHT22;21818;51.078;12.108;2024-03-08T06:23:13;8.20;74.30
35700;DHT22;21818;51.078;12.108;2024-03-08T06:25:43;8.10;74.30
35700;DHT22;21818;51.078;12.108;2024-03-08T06:28:09;8.10;74.40
35700;DHT22;21818;51.078;12.108;2024-03-08T06:30:34;8.20;74.50
35700;DHT22;21818;51.078;12.108;2024-03-08T06:33:00;8.20;74.40
35700;DHT22;21818;51.078;12.108;2024-03-08T06:35:25;8.30;77.20
35700;DHT22;21818;51.078;12.108;2024-03-08T06:37:51;8.80;76.60
35700;DHT22;21818;51.078;12.108;2024-03-08T06:40:16;9.00;75.50
35700;DHT22;21818;51.078;12.108;2024-03-08T06:42:42;8.90;75.10
35700;DHT22;21818;51.078;12.108;2024-03-08T06:45:08;8.70;75.50
35700;DHT22;21818;51.078;12.108;2024-03-08T06:47:35;8.60;75.40
35700;DHT22;21818;51.078;12.108;2024-03-08T06:50:01;8.50;75.20
35700;DHT22;21818;51.078;12.108;2024-03-08T06:52:26;8.50;75.30
35700;DHT22;21818;51.078;12.108;2024-03-08T06:54:52;8.50;75.40
35700;DHT22;21818;51.078;12.108;2024-03-08T06:57:18;8.40;75.50
35700;DHT22;21818;51.078;12.108;2024-03-08T06:59:43;8.40;75.30
35700;DHT22;21818;51.078;12.108;2024-03-08T07:02:10;8.40;75.90
35700;DHT22;21818;51.078;12.108;2024-03-08T07:04:35;8.40;75.10
35700;DHT22;21818;51.078;12.108;2024-03-08T07:07:03;8.50;75.10
35700;DHT22;21818;51.078;12.108;2024-03-08T07:09:29;8.50;75.00
35700;DHT22;21818;51.078;12.108;2024-03-08T07:11:54;8.50;75.00
35700;DHT22;21818;51.078;12.108;2024-03-08T07:14:23;8.60;75.00
35700;DHT22;21818;51.078;12.108;2024-03-08T07:16:49;8.60;75.00
35700;DHT22;21818;51.078;12.108;2024-03-08T07:19:14;8.60;74.90
35700;DHT22;21818;51.078;12.108;2024-03-08T07:21:41;8.50;75.00
35700;DHT22;21818;51.078;12.108;2024-03-08T07:24:07;8.50;74.90
35700;DHT22;21818;51.078;12.108;2024-03-08T07:26:41;8.50;75.10
35700;DHT22;21818;51.078;12.108;2024-03-08T07:29:07;8.50;75.20
35700;DHT22;21818;51.078;12.108;2024-03-08T07:31:33;8.50;75.10
35700;DHT22;21818;51.078;12.108;2024-03-08T07:34:27;8.50;75.10
35700;DHT22;21818;51.078;12.108;2024-03-08T07:36:53;8.50;75.10
35700;DHT22;21818;51.078;12.108;2024-03-08T07:39:18;8.60;75.10
35700;DHT22;21818;51.078;12.108;2024-03-08T07:41:44;8.50;75.10
35700;DHT22;21818;51.078;12.108;2024-03-08T07:44:09;8.60;75.20
35700;DHT22;21818;51.078;12.108;2024-03-08T07:46:35;8.60;75.80
35700;DHT22;21818;51.078;12.108;2024-03-08T07:49:02;8.60;75.20
35700;DHT22;21818;51.078;12.108;2024-03-08T07:51:28;8.70;75.00
35700;DHT22;21818;51.078;12.108;2024-03-08T07:53:53;8.80;75.00
35700;DHT22;21818;51.078;12.108;2024-03-08T07:56:20;8.80;75.00
35700;DHT22;21818;51.078;12.108;2024-03-08T07:58:47;8.80;75.00
35700;DHT22;21818;51.078;12.108;2024-03-08T08:01:16;8.80;74.80
35700;DHT22;21818;51.078;12.108;2024-03-08T08:03:42;8.90;74.90
35700;DHT22;21818;51.078;12.108;2024-03-08T08:06:07;8.90;74.80
35700;DHT22;21818;51.078;12.108;2024-03-08T08:08:32;9.00;74.80
35700;DHT22;21818;51.078;12.108;2024-03-08T08:10:58;9.00;74.80
35700;DHT22;21818;51.078;12.108;2024-03-08T08:13:24;9.00;74.90
35700;DHT22;21818;51.078;12.108;2024-03-08T08:15:49;9.10;75.00
35700;DHT22;21818;51.078;12.108;2024-03-08T08:18:15;9.10;74.90
35700;DHT22;21818;51.078;12.108;2024-03-08T08:20:41;9.10;74.90
35700;DHT22;21818;51.078;12.108;2024-03-08T08:23:06;9.10;74.90
35700;DHT22;21818;51.078;12.108;2024-03-08T08:25:32;9.10;75.00
35700;DHT22;21818;51.078;12.108;2024-03-08T08:27:59;9.20;75.00
35700;DHT22;21818;51.078;12.108;2024-03-08T08:30:25;9.30;75.00
35700;DHT22;21818;51.078;12.108;2024-03-08T08:32:50;9.30;74.90
35700;DHT22;21818;51.078;12.108;2024-03-08T08:35:16;9.30;74.80
35700;DHT22;21818;51.078;12.108;2024-03-08T08:37:41;9.30;74.90
35700;DHT22;21818;51.078;12.108;2024-03-08T08:40:07;9.40;75.10
35700;DHT22;21818;51.078;12.108;2024-03-08T08:42:40;9.40;75.00
35700;DHT22;21818;51.078;12.108;2024-03-08T08:45:06;9.50;75.10
35700;DHT22;21818;51.078;12.108;2024-03-08T08:47:37;9.50;75.00
35700;DHT22;21818;51.078;12.108;2024-03-08T08:50:03;9.50;75.10
35700;DHT22;21818;51.078;12.108;2024-03-08T08:52:30;9.50;75.00
35700;DHT22;21818;51.078;12.108;2024-03-08T08:54:56;9.60;75.10
35700;DHT22;21818;51.078;12.108;2024-03-08T08:57:21;9.60;75.20
35700;DHT22;21818;51.078;12.108;2024-03-08T08:59:47;9.60;75.10
35700;DHT22;21818;51.078;12.108;2024-03-08T09:02:12;9.70;75.00
35700;DHT22;21818;51.078;12.108;2024-03-08T09:04:38;9.70;75.10
35700;DHT22;21818;51.078;12.108;2024-03-08T09:07:03;9.70;75.10
35700;DHT22;21818;51.078;12.108;2024-03-08T09:09:32;9.80;75.60
35700;DHT22;21818;51.078;12.108;2024-03-08T09:11:57;9.80;75.10
35700;DHT22;21818;51.078;12.108;2024-03-08T09:14:23;9.90;74.90
35700;DHT22;21818;51.078;12.108;2024-03-08T09:16:48;9.90;74.80
35700;DHT22;21818;51.078;12.108;2024-03-08T09:19:14;10.00;74.90
35700;DHT22;21818;51.078;12.108;2024-03-08T09:21:40;10.10;74.90
35700;DHT22;21818;51.078;12.108;2024-03-08T09:24:06;10.10;74.70
35700;DHT22;21818;51.078;12.108;2024-03-08T09:26:32;10.20;74.70
35700;DHT22;21818;51.078;12.108;2024-03-08T09:28:59;10.20;74.80
35700;DHT22;21818;51.078;12.108;2024-03-08T09:31:24;10.20;74.60
35700;DHT22;21818;51.078;12.108;2024-03-08T09:33:51;10.30;74.60
35700;DHT22;21818;51.078;12.108;2024-03-08T09:36:17;10.30;74.60
35700;DHT22;21818;51.078;12.108;2024-03-08T09:38:42;10.40;74.60
35700;DHT22;21818;51.078;12.108;2024-03-08T09:41:08;10.40;74.70
35700;DHT22;21818;51.078;12.108;2024-03-08T09:43:35;10.50;74.50
35700;DHT22;21818;51.078;12.108;2024-03-08T09:46:01;10.60;74.30
35700;DHT22;21818;51.078;12.108;2024-03-08T09:48:27;10.60;74.30
35700;DHT22;21818;51.078;12.108;2024-03-08T09:50:54;10.70;74.20
35700;DHT22;21818;51.078;12.108;2024-03-08T09:53:20;10.70;74.00
35700;DHT22;21818;51.078;12.108;2024-03-08T09:55:47;10.70;73.90
35700;DHT22;21818;51.078;12.108;2024-03-08T09:58:15;10.80;74.10
35700;DHT22;21818;51.078;12.108;2024-03-08T10:00:46;10.80;73.90
35700;DHT22;21818;51.078;12.108;2024-03-08T10:03:12;10.90;73.80
35700;DHT22;21818;51.078;12.108;2024-03-08T10:05:40;11.00;74.10
35700;DHT22;21818;51.078;12.108;2024-03-08T10:08:06;11.00;74.10
35700;DHT22;21818;51.078;12.108;2024-03-08T10:10:35;11.10;74.10
35700;DHT22;21818;51.078;12.108;2024-03-08T10:13:01;11.10;73.90
35700;DHT22;21818;51.078;12.108;2024-03-08T10:15:29;11.10;73.80
35700;DHT22;21818;51.078;12.108;2024-03-08T10:17:57;11.20;73.70
35700;DHT22;21818;51.078;12.108;2024-03-08T10:20:23;11.20;73.80
35700;DHT22;21818;51.078;12.108;2024-03-08T10:22:49;11.20;73.60
35700;DHT22;21818;51.078;12.108;2024-03-08T10:25:14;11.20;73.70
35700;DHT22;21818;51.078;12.108;2024-03-08T10:27:40;11.20;73.40
35700;DHT22;21818;51.078;12.108;2024-03-08T10:30:10;11.30;73.70
35700;DHT22;21818;51.078;12.108;2024-03-08T10:32:35;11.30;74.10
35700;DHT22;21818;51.078;12.108;2024-03-08T10:35:01;11.40;73.40
35700;DHT22;21818;51.078;12.108;2024-03-08T10:37:26;11.40;73.60
35700;DHT22;21818;51.078;12.108;2024-03-08T10:40:02;11.50;73.50
35700;DHT22;21818;51.078;12.108;2024-03-08T10:42:38;11.50;73.60
35700;DHT22;21818;51.078;12.108;2024-03-08T10:45:05;11.50;73.50
35700;DHT22;21818;51.078;12.108;2024-03-08T10:47:33;11.50;73.00
35700;DHT22;21818;51.078;12.108;2024-03-08T10:52:32;11.60;73.20
35700;DHT22;21818;51.078;12.108;2024-03-08T10:54:57;11.60;73.30
35700;DHT22;21818;51.078;12.108;2024-03-08T10:57:24;11.70;73.20
35700;DHT22;21818;51.078;12.108;2024-03-08T10:59:50;11.70;72.80
35700;DHT22;21818;51.078;12.108;2024-03-08T11:02:18;11.70;73.00
35700;DHT22;21818;51.078;12.108;2024-03-08T11:04:48;11.80;73.30
35700;DHT22;21818;51.078;12.108;2024-03-08T11:07:14;11.80;72.90
35700;DHT22;21818;51.078;12.108;2024-03-08T11:09:42;11.80;72.90
35700;DHT22;21818;51.078;12.108;2024-03-08T11:14:46;11.90;72.60
35700;DHT22;21818;51.078;12.108;2024-03-08T11:17:21;12.00;72.90
35700;DHT22;21818;51.078;12.108;2024-03-08T11:19:48;12.00;72.90
35700;DHT22;21818;51.078;12.108;2024-03-08T11:22:23;12.10;72.80
35700;DHT22;21818;51.078;12.108;2024-03-08T11:24:49;12.10;73.10
35700;DHT22;21818;51.078;12.108;2024-03-08T11:27:14;12.20;72.70
35700;DHT22;21818;51.078;12.108;2024-03-08T11:29:40;12.20;72.00
35700;DHT22;21818;51.078;12.108;2024-03-08T11:32:12;12.30;72.50
35700;DHT22;21818;51.078;12.108;2024-03-08T11:34:40;12.40;72.30
35700;DHT22;21818;51.078;12.108;2024-03-08T11:37:13;12.40;71.60
35700;DHT22;21818;51.078;12.108;2024-03-08T11:39:40;12.50;71.20
35700;DHT22;21818;51.078;12.108;2024-03-08T11:42:11;12.50;71.10
35700;DHT22;21818;51.078;12.108;2024-03-08T11:44:37;12.60;71.20
35700;DHT22;21818;51.078;12.108;2024-03-08T11:47:03;12.60;71.50
35700;DHT22;21818;51.078;12.108;2024-03-08T11:49:33;12.70;71.10
35700;DHT22;21818;51.078;12.108;2024-03-08T11:51:58;12.80;71.10
35700;DHT22;21818;51.078;12.108;2024-03-08T11:54:24;12.90;70.80
35700;DHT22;21818;51.078;12.108;2024-03-08T11:56:51;12.90;70.20
35700;DHT22;21818;51.078;12.108;2024-03-08T11:59:16;13.00;70.90
35700;DHT22;21818;51.078;12.108;2024-03-08T12:01:43;13.10;70.80
35700;DHT22;21818;51.078;12.108;2024-03-08T12:04:11;13.30;70.60
35700;DHT22;21818;51.078;12.108;2024-03-08T12:06:40;13.50;70.30
35700;DHT22;21818;51.078;12.108;2024-03-08T12:09:12;13.60;69.50
35700;DHT22;21818;51.078;12.108;2024-03-08T12:11:38;13.70;69.30
35700;DHT22;21818;51.078;12.108;2024-03-08T12:14:03;13.90;69.30
35700;DHT22;21818;51.078;12.108;2024-03-08T12:16:29;14.00;69.50
35700;DHT22;21818;51.078;12.108;2024-03-08T12:18:55;14.10;69.20
35700;DHT22;21818;51.078;12.108;2024-03-08T12:21:21;14.20;69.10
35700;DHT22;21818;51.078;12.108;2024-03-08T12:24:01;14.30;69.20
35700;DHT22;21818;51.078;12.108;2024-03-08T12:26:28;14.40;68.80
35700;DHT22;21818;51.078;12.108;2024-03-08T12:28:53;14.60;68.80
35700;DHT22;21818;51.078;12.108;2024-03-08T12:31:19;14.70;69.00
35700;DHT22;21818;51.078;12.108;2024-03-08T12:33:50;14.80;68.40
35700;DHT22;21818;51.078;12.108;2024-03-08T12:36:16;14.90;68.40
35700;DHT22;21818;51.078;12.108;2024-03-08T12:38:48;15.10;68.30
35700;DHT22;21818;51.078;12.108;2024-03-08T12:41:17;15.20;68.10
35700;DHT22;21818;51.078;12.108;2024-03-08T12:43:44;15.40;67.80
35700;DHT22;21818;51.078;12.108;2024-03-08T12:46:15;15.50;67.50
35700;DHT22;21818;51.078;12.108;2024-03-08T12:48:41;15.60;68.00
35700;DHT22;21818;51.078;12.108;2024-03-08T12:51:10;15.70;68.00
35700;DHT22;21818;51.078;12.108;2024-03-08T12:53:36;15.90;67.40
35700;DHT22;21818;51.078;12.108;2024-03-08T12:56:02;16.00;66.70
35700;DHT22;21818;51.078;12.108;2024-03-08T12:58:29;16.10;66.60
35700;DHT22;21818;51.078;12.108;2024-03-08T13:00:54;16.20;66.90
35700;DHT22;21818;51.078;12.108;2024-03-08T13:03:20;16.30;66.60
35700;DHT22;21818;51.078;12.108;2024-03-08T13:05:48;16.40;66.60
35700;DHT22;21818;51.078;12.108;2024-03-08T13:08:14;16.60;66.20
35700;DHT22;21818;51.078;12.108;2024-03-08T13:10:41;16.70;65.80
35700;DHT22;21818;51.078;12.108;2024-03-08T13:13:09;16.80;65.30
35700;DHT22;21818;51.078;12.108;2024-03-08T13:15:35;16.80;65.20
35700;DHT22;21818;51.078;12.108;2024-03-08T13:18:00;16.90;64.70
35700;DHT22;21818;51.078;12.108;2024-03-08T13:20:26;16.90;64.60
35700;DHT22;21818;51.078;12.108;2024-03-08T13:22:53;17.00;64.60
35700;DHT22;21818;51.078;12.108;2024-03-08T13:25:19;17.20;64.60
35700;DHT22;21818;51.078;12.108;2024-03-08T13:27:45;17.20;64.40
35700;DHT22;21818;51.078;12.108;2024-03-08T13:30:11;17.30;64.10
35700;DHT22;21818;51.078;12.108;2024-03-08T13:32:39;17.30;64.30
35700;DHT22;21818;51.078;12.108;2024-03-08T13:35:05;17.50;64.10
35700;DHT22;21818;51.078;12.108;2024-03-08T13:37:41;17.50;63.40
35700;DHT22;21818;51.078;12.108;2024-03-08T13:40:07;17.50;63.80
35700;DHT22;21818;51.078;12.108;2024-03-08T13:42:39;17.60;64.10
35700;DHT22;21818;51.078;12.108;2024-03-08T13:45:13;17.70;63.50
35700;DHT22;21818;51.078;12.108;2024-03-08T13:47:41;17.70;63.90
35700;DHT22;21818;51.078;12.108;2024-03-08T13:50:07;17.80;63.40
35700;DHT22;21818;51.078;12.108;2024-03-08T13:52:36;17.80;63.00
35700;DHT22;21818;51.078;12.108;2024-03-08T13:55:02;17.90;63.00
35700;DHT22;21818;51.078;12.108;2024-03-08T13:57:27;17.90;62.70
35700;DHT22;21818;51.078;12.108;2024-03-08T13:59:52;18.00;62.50
35700;DHT22;21818;51.078;12.108;2024-03-08T14:02:18;18.00;62.50
35700;DHT22;21818;51.078;12.108;2024-03-08T14:04:43;18.10;62.30
35700;DHT22;21818;51.078;12.108;2024-03-08T14:07:09;18.10;62.30
35700;DHT22;21818;51.078;12.108;2024-03-08T14:09:36;18.20;62.00
35700;DHT22;21818;51.078;12.108;2024-03-08T14:12:03;18.20;61.40
35700;DHT22;21818;51.078;12.108;2024-03-08T14:14:31;18.20;61.30
35700;DHT22;21818;51.078;12.108;2024-03-08T14:16:56;18.30;61.30
35700;DHT22;21818;51.078;12.108;2024-03-08T14:19:23;18.40;60.90
35700;DHT22;21818;51.078;12.108;2024-03-08T14:21:49;18.40;60.80
35700;DHT22;21818;51.078;12.108;2024-03-08T14:24:15;18.40;60.60
35700;DHT22;21818;51.078;12.108;2024-03-08T14:26:41;18.50;60.50
35700;DHT22;21818;51.078;12.108;2024-03-08T14:29:07;18.40;60.10
35700;DHT22;21818;51.078;12.108;2024-03-08T14:31:33;18.50;60.70
35700;DHT22;21818;51.078;12.108;2024-03-08T14:33:59;18.50;60.10
35700;DHT22;21818;51.078;12.108;2024-03-08T14:36:31;18.50;60.30
35700;DHT22;21818;51.078;12.108;2024-03-08T14:38:57;18.50;60.20
35700;DHT22;21818;51.078;12.108;2024-03-08T14:41:23;18.50;60.00
35700;DHT22;21818;51.078;12.108;2024-03-08T14:43:48;18.60;59.80
35700;DHT22;21818;51.078;12.108;2024-03-08T14:46:14;18.50;59.90
35700;DHT22;21818;51.078;12.108;2024-03-08T14:48:43;18.60;59.80
35700;DHT22;21818;51.078;12.108;2024-03-08T14:51:08;18.60;59.60
35700;DHT22;21818;51.078;12.108;2024-03-08T14:53:42;18.60;59.70
35700;DHT22;21818;51.078;12.108;2024-03-08T14:56:10;18.60;59.80
35700;DHT22;21818;51.078;12.108;2024-03-08T14:58:37;18.60;59.50
35700;DHT22;21818;51.078;12.108;2024-03-08T15:01:03;18.60;59.80
35700;DHT22;21818;51.078;12.108;2024-03-08T15:03:32;18.60;60.20
35700;DHT22;21818;51.078;12.108;2024-03-08T15:05:58;18.60;59.50
35700;DHT22;21818;51.078;12.108;2024-03-08T15:08:23;18.60;59.60
35700;DHT22;21818;51.078;12.108;2024-03-08T15:10:49;18.60;59.50
35700;DHT22;21818;51.078;12.108;2024-03-08T15:13:24;18.60;59.70
35700;DHT22;21818;51.078;12.108;2024-03-08T15:15:53;18.50;59.40
35700;DHT22;21818;51.078;12.108;2024-03-08T15:18:21;18.50;59.70
35700;DHT22;21818;51.078;12.108;2024-03-08T15:20:51;18.50;59.60
35700;DHT22;21818;51.078;12.108;2024-03-08T15:23:16;18.40;59.60
35700;DHT22;21818;51.078;12.108;2024-03-08T15:25:42;18.50;59.70
35700;DHT22;21818;51.078;12.108;2024-03-08T15:28:13;18.50;60.20